Lincoln, Alabama
Current Conditions -  °F | °C
As of 10:55 PM on Friday 28 Nov 2014 (Local Time) from KASN Reporting Station
Clear Clear  
Wind Chill: 32°   Ceiling: Unl
Heat Index: 32°   Visibility: 10mi
Dew Point: 28°   Wind: 0mph
Humidity: 85%   Direction: NA
Pressure: 30.27"   Gusts: NA
Location:  33.61°N, 86.12°W
Report Text: KASN 290455Z AUTO 00000KT 10SM CLR 00/M02 A3027 RMK AO2 T00001023
Loading
Personal Weather Stations






























Interactive Weather Map New forecast layout! Learn more

10-Day Weather Forecast

Advertisements
Track Severe Weather on mobile